Terminal Aerodrome Forecast
Issued by NWS Portland, OR

Home | Current Version | Previous Version | Text Only | Print | Product List | Glossary On
Versions: 1 2 3 4 5 6 7 8 9 10 11 12 13 14 15 16 17 18 19 20 21 22 23 24 25 26 27 28 29 30 31 32 33 34 35 36 37 38 39 40 41 42 43 44 45 46 47
000
FTUS46 KPQR 311033 AAB
TAFSLE
TAF AMD
KSLE 311033Z 3111/0106 00000KT P6SM SCT250
     FM311200 00000KT 3SM BR SCT003
     FM311300 00000KT 1/4SM FG VV001
     FM311700 00000KT 3SM BR OVC003
     FM312100 02004KT 4SM BR BKN004
     FM312300 VRB04KT P6SM SCT250=

USA.gov is the U.S. government's official web portal to all federal, state and local government web resources and services.